Time;durP1;ratioP1;P1;durP2;ratioP2;P2;SDS_P1;SDS_P2;PMS_P1;PMS_P2;Temp;Humidity;BMP_temperature;BMP_pressure;BME280_temperature;BME280_humidity;BME280_pressure;Samples;Min_cycle;Max_cycle;Signal;HPM_P1;HPM_P2
2022/12/03 00:01:14;;;;;;;53.95;22.73;;;-0.20;99.90;;;-1.97;98.68;102431.38;4996382;28;20028;-83
2022/12/03 00:03:50;;;;;;;;;;;;;;;;;;;;;
2022/12/03 00:06:16;;;;;;;53.20;22.77;;;-0.20;99.90;;;-2.00;98.26;102431.28;5028795;28;20584;-84
2022/12/03 00:08:45;;;;;;;51.35;22.33;;;-0.30;99.90;;;-2.05;98.91;102428.53;5010402;28;20034;-83
2022/12/03 00:11:37;;;;;;;52.47;23.95;;;-0.30;99.90;;;-2.04;98.47;102432.88;5011268;28;20017;-83
2022/12/03 00:14:04;;;;;;;52.90;23.05;;;;;;;-2.04;98.53;102438.03;5014368;28;20053;-83
2022/12/03 00:16:32;;;;;;;53.80;22.90;;;-0.30;99.90;;;-2.10;98.87;102424.91;5030014;28;20030;-83
2022/12/03 00:19:05;;;;;;;49.10;22.73;;;-0.30;99.90;;;-2.13;99.68;102428.28;5010215;28;20030;-83
2022/12/03 00:21:35;;;;;;;56.22;23.80;;;-0.30;99.90;;;-2.07;99.87;102423.31;5012239;28;20061;-83
2022/12/03 00:24:01;;;;;;;56.22;21.55;;;-0.30;99.90;;;-2.13;100.00;102417.97;5024885;28;20014;-84
2022/12/03 00:26:36;;;;;;;54.70;22.48;;;-0.30;99.90;;;-2.07;100.00;102428.50;5010440;28;20066;-84
2022/12/03 00:29:05;;;;;;;51.92;23.10;;;-0.30;99.90;;;-2.06;100.00;102424.19;5012986;28;20528;-84
2022/12/03 00:31:57;;;;;;;53.10;22.40;;;-0.30;99.90;;;-1.99;100.00;102420.97;5031578;28;20037;-84
2022/12/03 00:34:55;;;;;;;53.45;25.27;;;-0.20;99.90;;;-2.00;100.00;102414.06;5030250;28;20099;-84
2022/12/03 00:37:44;;;;;;;56.45;23.45;;;;;;;-1.98;100.00;102404.66;5019119;28;20380;-83
2022/12/03 00:40:57;;;;;;;56.40;26.58;;;-0.20;99.90;;;-2.00;100.00;102401.16;5029535;28;20034;-84
2022/12/03 00:43:25;;;;;;;52.83;24.20;;;-0.20;99.90;;;-2.01;100.00;102408.84;5015004;28;20428;-85
2022/12/03 00:46:17;;;;;;;56.90;22.75;;;;;;;-2.02;100.00;102410.56;4996506;28;20029;-84
2022/12/03 00:48:46;;;;;;;52.30;22.42;;;-0.20;99.90;;;-1.92;100.00;102412.63;5030753;28;20036;-84
2022/12/03 00:51:12;;;;;;;53.67;23.67;;;-0.10;99.90;;;-1.85;100.00;102413.69;5012046;28;20037;-84
2022/12/03 00:53:46;;;;;;;56.10;23.48;;;-0.10;99.90;;;-1.92;100.00;102411.75;4998035;28;20028;-84
2022/12/03 00:56:15;;;;;;;52.28;23.38;;;0.00;99.90;;;-1.80;100.00;102413.81;5009690;28;20045;-85
2022/12/03 00:58:54;;;;;;;;;;;;;;;;;;;;;
2022/12/03 01:01:47;;;;;;;65.05;30.33;;;0.10;99.90;;;-1.53;100.00;102416.41;5030669;28;20495;-84
2022/12/03 01:04:16;;;;;;;52.72;22.27;;;0.20;99.90;;;-1.56;100.00;102411.13;5029646;28;20482;-85
2022/12/03 01:06:54;;;;;;;56.25;26.52;;;;;;;-1.48;100.00;102410.50;5015900;28;20108;-85
2022/12/03 01:09:35;;;;;;;51.88;23.52;;;0.30;99.90;;;-1.36;100.00;102412.59;5032234;28;20064;-85
2022/12/03 01:12:24;;;;;;;51.58;23.98;;;0.40;99.90;;;-1.31;100.00;102416.19;5017604;28;20026;-85
2022/12/03 01:14:56;;;;;;;46.08;21.92;;;;;;;-1.26;100.00;102418.91;4978111;28;21151;-84
2022/12/03 01:17:22;;;;;;;57.22;25.35;;;0.50;99.90;;;-1.16;100.00;102420.06;5028128;23;20073;-77
2022/12/03 01:19:51;;;;;;;46.72;22.65;;;0.60;99.90;;;-1.09;100.00;102422.84;5040720;28;20449;-77
2022/12/03 01:22:17;;;;;;;51.15;23.17;;;0.60;99.90;;;-1.08;100.00;102409.09;5038239;28;20029;-77
2022/12/03 01:24:42;;;;;;;44.15;20.98;;;0.70;99.90;;;-1.04;100.00;102422.97;5038410;28;20524;-77
2022/12/03 01:27:08;;;;;;;45.45;20.45;;;0.70;99.90;;;-0.94;100.00;102421.53;5033567;28;20626;-77
2022/12/03 01:29:34;;;;;;;47.88;21.20;;;0.80;99.90;;;-1.02;100.00;102415.28;4990596;28;20125;-77
2022/12/03 01:32:15;;;;;;;40.85;17.80;;;0.80;99.90;;;-1.04;99.80;102413.53;5003748;28;20032;-77
2022/12/03 01:34:52;;;;;;;25.60;10.68;;;0.80;99.90;;;-1.01;99.68;102417.03;5004723;28;20041;-77
2022/12/03 01:37:21;;;;;;;43.15;20.67;;;0.80;99.90;;;-0.89;100.00;102415.66;5002709;28;20030;-77
2022/12/03 01:39:54;;;;;;;45.00;21.60;;;0.90;99.90;;;-0.90;99.28;102413.03;5002592;28;20037;-77
2022/12/03 01:42:23;;;;;;;38.45;19.13;;;0.90;99.90;;;-0.90;99.61;102407.88;5005937;28;20038;-78
2022/12/03 01:44:56;;;;;;;45.50;20.70;;;0.90;99.90;;;-0.90;99.22;102402.69;5006602;28;20038;-77
2022/12/03 01:47:31;;;;;;;42.90;20.83;;;0.90;99.90;;;-0.81;99.09;102396.88;4984990;28;20037;-77
2022/12/03 01:50:05;;;;;;;45.10;21.30;;;1.00;99.90;;;-0.78;98.98;102399.56;4986167;28;20033;-77
2022/12/03 01:52:37;;;;;;;45.47;21.60;;;1.00;99.90;;;-0.76;98.44;102395.28;5001914;28;20769;-77
2022/12/03 01:55:14;;;;;;;44.83;21.10;;;1.00;99.90;;;-0.72;98.64;102394.53;5006937;28;20031;-77
2022/12/03 01:58:11;;;;;;;38.65;17.60;;;1.00;99.90;;;-0.70;98.02;102398.91;5004041;28;20036;-77
2022/12/03 02:00:37;;;;;;;45.38;20.23;;;1.00;99.90;;;-0.71;97.63;102407.53;5000315;28;20034;-77
2022/12/03 02:03:14;;;;;;;46.72;22.08;;;1.00;99.90;;;-0.69;97.98;102405.88;4985238;28;20124;-77
2022/12/03 02:05:42;;;;;;;44.90;18.95;;;1.00;99.90;;;-0.75;97.70;102400.53;4988058;28;20410;-77
2022/12/03 02:08:29;;;;;;;45.28;21.38;;;1.10;99.90;;;-0.69;98.02;102403.28;5002366;28;20030;-76
2022/12/03 02:11:02;;;;;;;38.90;20.60;;;1.10;99.90;;;-0.68;97.94;102402.41;5003683;28;20030;-76
2022/12/03 02:13:28;;;;;;;44.10;20.10;;;1.10;99.90;;;-0.60;97.61;102386.22;4984502;28;20042;-77
2022/12/03 02:15:54;;;;;;;43.10;20.33;;;1.10;99.90;;;-0.58;97.70;102387.13;5005010;28;20029;-77
2022/12/03 02:18:20;;;;;;;41.20;19.02;;;;;;;-0.65;97.58;102394.75;5004312;28;20042;-77
2022/12/03 02:21:10;;;;;;;42.58;18.00;;;1.10;99.90;;;-0.73;97.61;102404.03;5005747;28;20036;-77
2022/12/03 02:24:00;;;;;;;39.75;19.30;;;1.10;99.90;;;-0.72;98.03;102398.00;5002734;28;20503;-77
2022/12/03 02:26:26;;;;;;;41.08;19.48;;;1.20;99.90;;;-0.60;97.90;102383.63;5000635;28;20172;-77
2022/12/03 02:28:52;;;;;;;42.28;20.98;;;1.20;99.90;;;-0.51;97.86;102397.69;5004729;28;20109;-77
2022/12/03 02:31:21;;;;;;;46.20;21.13;;;1.20;99.90;;;-0.48;97.51;102404.66;4986679;28;20546;-77
2022/12/03 02:33:47;;;;;;;44.83;20.02;;;1.20;99.90;;;-0.51;97.34;102399.41;5002061;28;20494;-77
2022/12/03 02:36:12;;;;;;;42.15;19.92;;;1.20;99.90;;;-0.48;97.44;102399.47;5000861;28;20031;-77
2022/12/03 02:38:40;;;;;;;48.10;21.77;;;1.30;99.90;;;-0.48;97.33;102400.34;5001197;28;20037;-77
2022/12/03 02:42:33;;;;;;;45.72;20.75;;;1.30;99.90;;;-0.37;97.29;102390.28;5003339;28;20557;-77
2022/12/03 02:43:57;;;;;;;44.10;21.23;;;1.40;99.90;;;-0.38;97.19;102379.91;5002081;28;20046;-77
2022/12/03 02:46:23;;;;;;;41.60;20.73;;;1.30;99.90;;;-0.30;96.80;102386.13;5002161;28;20038;-77
2022/12/03 02:48:49;;;;;;;48.60;22.85;;;1.30;99.90;;;-0.33;96.54;102384.34;4983748;28;20041;-77
2022/12/03 02:51:15;;;;;;;46.58;22.17;;;1.40;99.90;;;-0.25;96.41;102380.22;5001622;28;20054;-77
2022/12/03 02:53:46;;;;;;;48.55;21.88;;;1.40;99.90;;;-0.25;95.98;102382.81;5004007;28;20053;-77
2022/12/03 02:56:17;;;;;;;47.97;22.42;;;1.40;99.90;;;-0.29;96.27;102386.16;5002341;28;20036;-77
2022/12/03 02:58:48;;;;;;;49.40;22.67;;;1.40;99.90;;;-0.32;96.55;102380.94;5003483;28;20033;-77
2022/12/03 03:01:14;;;;;;;49.50;22.92;;;1.40;99.90;;;-0.32;96.48;102375.75;4985918;28;20065;-77
2022/12/03 03:03:40;;;;;;;48.42;21.75;;;1.40;99.90;;;-0.30;96.65;102374.06;5001076;28;20502;-77
2022/12/03 03:06:08;;;;;;;50.33;22.65;;;1.40;99.90;;;-0.37;96.90;102366.97;5003080;28;20038;-77
2022/12/03 03:08:36;;;;;;;51.35;22.40;;;1.40;99.90;;;-0.35;97.40;102378.25;5002995;28;20449;-77
2022/12/03 03:11:04;;;;;;;46.67;23.13;;;1.50;99.90;;;-0.30;97.72;102371.47;5001233;28;20507;-76
2022/12/03 03:13:33;;;;;;;47.10;21.23;;;1.50;99.90;;;-0.24;97.21;102373.31;4999996;28;20061;-77
2022/12/03 03:16:01;;;;;;;48.22;21.77;;;1.50;99.90;;;-0.19;96.57;102376.03;5003100;28;20398;-77
2022/12/03 03:18:27;;;;;;;52.00;22.02;;;1.50;99.90;;;-0.21;96.92;102378.59;5001159;28;20441;-77
2022/12/03 03:20:55;;;;;;;47.40;21.65;;;1.50;99.90;;;-0.17;96.22;102369.16;5001582;28;20038;-76
2022/12/03 03:23:23;;;;;;;46.65;22.13;;;1.50;99.90;;;-0.23;96.68;102375.97;4998530;28;20041;-77
2022/12/03 03:26:07;;;;;;;48.30;21.15;;;1.50;99.90;;;-0.32;96.82;102380.94;4997506;28;20046;-77
2022/12/03 03:28:37;;;;;;;45.95;22.40;;;1.40;99.90;;;-0.29;96.84;102374.94;4986519;28;20065;-76
2022/12/03 03:31:06;;;;;;;49.35;22.20;;;1.50;99.90;;;-0.21;96.79;102363.94;5001363;28;20038;-76
2022/12/03 03:33:33;;;;;;;45.63;20.55;;;1.50;99.90;;;-0.25;96.49;102362.09;5001872;28;20100;-77
2022/12/03 03:36:02;;;;;;;46.40;21.42;;;1.50;99.90;;;-0.28;96.87;102359.47;4981313;28;20029;-76
2022/12/03 03:38:29;;;;;;;45.47;21.23;;;1.50;99.90;;;-0.17;96.47;102358.81;4983510;28;20441;-76
2022/12/03 03:40:57;;;;;;;45.25;20.30;;;1.50;99.90;;;-0.11;96.02;102358.97;5004203;28;20041;-76
2022/12/03 03:43:23;;;;;;;43.55;20.80;;;1.50;99.90;;;-0.13;96.01;102353.78;5002768;28;20026;-76
2022/12/03 03:45:51;;;;;;;42.65;20.52;;;1.50;99.90;;;-0.19;96.06;102360.50;5002254;28;20041;-76
2022/12/03 03:48:17;;;;;;;39.90;19.63;;;1.50;99.90;;;-0.12;95.80;102354.63;5002364;28;20494;-76
2022/12/03 03:50:45;;;;;;;40.85;19.25;;;1.50;99.90;;;-0.22;95.90;102357.03;4982888;28;20188;-76
2022/12/03 03:53:12;;;;;;;42.33;20.55;;;1.50;99.90;;;-0.27;95.74;102348.25;5002805;28;20026;-76
2022/12/03 03:55:39;;;;;;;39.28;19.92;;;1.50;99.90;;;-0.18;95.95;102342.41;5016624;28;20031;-76
2022/12/03 03:58:05;;;;;;;44.17;21.15;;;1.50;99.90;;;-0.14;95.46;102351.13;5001838;28;20031;-76
2022/12/03 04:00:31;;;;;;;46.20;20.42;;;1.50;99.90;;;-0.18;95.23;102338.97;5000575;28;20034;-76
2022/12/03 04:02:56;;;;;;;43.83;20.27;;;1.50;99.90;;;-0.13;94.72;102335.66;5000871;28;20429;-76
2022/12/03 04:05:23;;;;;;;41.60;19.02;;;1.50;99.90;;;-0.20;95.03;102333.72;5002716;28;20109;-76
2022/12/03 04:07:49;;;;;;;42.33;20.02;;;1.60;99.90;;;-0.11;95.06;102333.06;5003250;28;20049;-76
2022/12/03 04:13:01;;;;;;;45.55;20.15;;;1.60;99.90;;;-0.10;94.48;102325.34;5000604;28;20160;-76
2022/12/03 04:15:27;;;;;;;40.53;19.42;;;1.60;99.90;;;-0.02;94.67;102325.53;4998378;28;20030;-76
2022/12/03 04:20:38;;;;;;;41.97;19.67;;;1.60;99.90;;;-0.01;94.47;102332.44;5001511;28;20413;-76
2022/12/03 04:23:05;;;;;;;41.13;19.45;;;1.60;99.90;;;0.03;94.52;102326.50;4983309;28;20030;-76
2022/12/03 04:35:41;;;;;;;43.83;19.27;;;1.60;99.90;;;0.01;93.75;102329.91;5000524;28;20499;-76
2022/12/03 04:36:30;;;;;;;49.13;21.40;;;1.60;99.90;;;-0.01;94.32;102317.78;4999689;28;20041;-76
2022/12/03 04:38:56;;;;;;;43.70;20.20;;;1.70;99.90;;;0.00;94.66;102316.09;4985588;28;20034;-76
2022/12/03 04:41:21;;;;;;;45.28;20.02;;;1.70;99.90;;;0.05;94.50;102316.19;5006255;28;20112;-76
2022/12/03 04:46:39;;;;;;;38.92;18.65;;;1.60;99.90;;;-0.10;94.04;102315.00;4994509;28;20077;-76
2022/12/03 04:49:05;;;;;;;40.83;19.75;;;1.60;99.90;;;-0.10;94.55;102307.22;5003074;28;20445;-76
2022/12/03 04:51:38;;;;;;;42.70;20.63;;;1.60;99.90;;;-0.03;94.93;102297.88;5001416;28;20109;-76
2022/12/03 04:54:04;;;;;;;41.80;20.20;;;1.70;99.90;;;-0.03;94.46;102306.50;5009715;28;20026;-76
2022/12/03 04:56:30;;;;;;;48.42;20.83;;;1.60;99.90;;;0.02;94.36;102306.59;5007281;28;20052;-76
2022/12/03 04:58:56;;;;;;;46.38;20.85;;;1.60;99.90;;;-0.02;94.49;102307.41;5002791;28;20474;-76
2022/12/03 05:01:24;;;;;;;45.03;20.00;;;1.70;99.90;;;0.03;94.75;102312.69;5005630;28;20153;-76
2022/12/03 05:03:50;;;;;;;44.88;21.02;;;1.70;99.90;;;0.03;94.67;102313.56;5002730;28;20399;-76
2022/12/03 05:06:15;;;;;;;47.88;22.58;;;1.70;99.90;;;0.05;94.61;102317.06;5006018;28;20092;-77
2022/12/03 05:08:41;;;;;;;44.17;20.95;;;1.70;99.90;;;0.05;94.61;102319.66;5003927;28;20034;-77
2022/12/03 05:11:07;;;;;;;43.40;19.42;;;1.70;99.90;;;0.06;94.67;102315.34;5001068;28;20168;-76
2022/12/03 05:13:33;;;;;;;48.78;21.77;;;1.70;99.90;;;0.01;94.99;102307.47;5000064;28;20116;-76
2022/12/03 05:15:58;;;;;;;43.60;20.50;;;1.70;99.90;;;-0.01;94.73;102304.81;5004288;28;20105;-76
2022/12/03 05:18:24;;;;;;;42.63;20.00;;;1.70;99.90;;;0.01;94.47;102302.28;5002676;28;20157;-76
2022/12/03 05:20:50;;;;;;;41.25;19.58;;;1.70;99.90;;;-0.01;94.67;102303.97;4991627;28;20526;-77
2022/12/03 05:23:15;;;;;;;43.22;20.35;;;1.60;99.90;;;-0.02;94.83;102302.22;4985137;28;20474;-76
2022/12/03 05:25:43;;;;;;;44.60;19.40;;;1.60;99.90;;;-0.01;94.75;102298.78;4987966;28;20038;-77
2022/12/03 05:28:09;;;;;;;44.47;20.10;;;1.60;99.90;;;0.00;94.46;102305.72;4988296;28;20406;-76
2022/12/03 05:30:35;;;;;;;48.97;20.55;;;1.60;99.90;;;0.01;94.16;102299.69;5003907;28;20030;-77
2022/12/03 05:33:01;;;;;;;48.05;22.13;;;1.70;99.90;;;0.02;94.22;102303.16;5004217;28;20081;-76
2022/12/03 05:35:27;;;;;;;49.55;20.98;;;1.60;99.90;;;-0.05;94.62;102302.16;5003788;28;20077;-77
2022/12/03 05:37:53;;;;;;;51.38;20.20;;;1.60;99.90;;;-0.06;94.65;102301.28;5002478;28;20033;-76
2022/12/03 05:40:26;;;;;;;47.35;21.27;;;1.60;99.90;;;-0.07;94.62;102301.22;4989188;28;20071;-76
2022/12/03 05:42:52;;;;;;;44.95;20.90;;;1.60;99.90;;;-0.18;94.46;102297.53;5003070;28;20486;-77
2022/12/03 05:45:39;;;;;;;48.63;22.75;;;1.50;99.90;;;-0.09;94.49;102298.59;5004397;28;20046;-77
2022/12/03 05:48:08;;;;;;;48.22;21.85;;;1.50;99.90;;;-0.23;94.51;102287.94;5001120;28;20033;-77
2022/12/03 05:50:37;;;;;;;47.95;21.92;;;1.50;99.90;;;-0.10;95.32;102290.81;5001496;28;20522;-76
2022/12/03 05:53:03;;;;;;;47.25;21.88;;;1.60;99.90;;;-0.03;94.86;102290.09;5003929;28;20077;-76
2022/12/03 05:55:30;;;;;;;41.78;21.02;;;1.60;99.90;;;-0.02;94.92;102292.75;5007087;28;20038;-76
2022/12/03 05:57:56;;;;;;;42.25;20.30;;;1.60;99.90;;;-0.04;94.40;102293.56;5003057;28;20046;-76
2022/12/03 06:00:26;;;;;;;47.17;21.95;;;1.60;99.90;;;-0.03;94.44;102290.97;4989996;28;20034;-76
2022/12/03 06:02:52;;;;;;;46.40;21.42;;;1.60;99.90;;;-0.12;94.30;102290.78;5018779;28;20026;-76
2022/12/03 06:05:20;;;;;;;40.85;18.75;;;1.60;99.90;;;-0.24;94.08;102282.72;5005099;28;20023;-76
2022/12/03 06:07:48;;;;;;;42.83;19.58;;;1.50;99.90;;;-0.31;94.32;102281.72;5006050;28;20499;-76
2022/12/03 06:10:17;;;;;;;47.35;21.40;;;1.50;99.90;;;-0.24;94.30;102283.63;4985838;28;20046;-76
2022/12/03 06:12:43;;;;;;;47.90;20.00;;;1.50;99.90;;;-0.21;94.42;102281.09;4985259;28;20031;-76
2022/12/03 06:15:11;;;;;;;47.75;21.50;;;1.50;99.90;;;-0.19;94.37;102273.38;5002972;28;20557;-76
2022/12/03 06:17:37;;;;;;;52.25;22.10;;;1.50;99.90;;;-0.15;94.51;102272.59;4986888;28;20042;-76
2022/12/03 06:20:04;;;;;;;45.03;20.95;;;1.50;99.90;;;-0.29;93.63;102267.09;5004612;28;20057;-76
2022/12/03 06:22:30;;;;;;;47.97;21.45;;;1.50;99.90;;;-0.24;93.74;102278.44;4984226;28;20496;-76
2022/12/03 06:24:56;;;;;;;42.95;20.20;;;1.50;99.90;;;-0.27;93.98;102278.34;5000829;28;20038;-76
2022/12/03 06:27:24;;;;;;;49.67;21.55;;;1.50;99.90;;;-0.29;94.02;102272.25;5000940;28;20112;-77
2022/12/03 06:29:50;;;;;;;46.30;20.73;;;1.40;99.90;;;-0.47;94.03;102271.84;4986764;28;20026;-77
2022/12/03 06:32:16;;;;;;;45.65;19.33;;;1.40;99.90;;;-0.42;93.49;102272.81;4991333;28;20398;-76
2022/12/03 06:34:42;;;;;;;43.40;20.20;;;1.30;99.90;;;-0.48;94.27;102268.38;5018348;28;20137;-76
2022/12/03 06:37:07;;;;;;;41.00;19.65;;;1.40;99.90;;;-0.37;93.79;102268.63;5000454;28;20037;-76
2022/12/03 06:39:41;;;;;;;40.55;19.45;;;1.30;99.90;;;-0.49;94.10;102268.34;4999390;28;20037;-77
2022/12/03 06:42:07;;;;;;;46.30;19.83;;;1.30;99.90;;;-0.49;93.46;102264.03;5002442;28;20084;-76
2022/12/03 06:44:33;;;;;;;39.53;18.65;;;1.30;99.90;;;-0.56;93.58;102266.44;5003718;28;20454;-77
2022/12/03 06:46:59;;;;;;;47.08;21.83;;;1.30;99.90;;;-0.46;93.27;102271.00;5003563;28;20033;-76
2022/12/03 06:49:24;;;;;;;42.17;20.30;;;1.30;99.90;;;-0.52;92.75;102263.09;5001619;28;20037;-76
2022/12/03 06:51:52;;;;;;;44.22;21.90;;;1.20;99.90;;;-0.53;93.15;102264.81;5002304;28;20034;-77
2022/12/03 06:54:18;;;;;;;38.40;16.90;;;1.20;99.90;;;-0.54;92.87;102269.94;4985249;28;20506;-77
2022/12/03 06:56:45;;;;;;;35.53;16.88;;;1.20;99.90;;;-0.62;93.09;102269.78;5005306;28;20109;-76
2022/12/03 06:59:11;;;;;;;43.53;18.67;;;1.20;99.90;;;-0.59;92.81;102266.38;5000909;28;20019;-76
2022/12/03 07:01:36;;;;;;;37.50;18.85;;;1.20;99.90;;;-0.62;92.55;102264.59;4982557;28;20044;-76
2022/12/03 07:04:09;;;;;;;40.88;18.02;;;1.20;99.90;;;-0.63;92.51;102261.16;5003547;28;20030;-76
2022/12/03 07:06:35;;;;;;;41.55;19.52;;;1.20;99.90;;;-0.52;92.36;102255.31;4987868;28;20029;-76
2022/12/03 07:09:01;;;;;;;37.22;16.75;;;1.30;99.90;;;-0.53;92.58;102259.63;5003143;28;20594;-76
2022/12/03 07:11:30;;;;;;;41.58;18.40;;;1.20;99.90;;;-0.51;91.87;102264.84;4998590;28;20075;-76
2022/12/03 07:13:58;;;;;;;41.25;17.13;;;1.20;99.90;;;-0.56;92.40;102258.69;5000359;28;20033;-76
2022/12/03 07:16:23;;;;;;;34.28;16.83;;;1.20;99.90;;;-0.59;91.72;102251.72;4981982;28;20057;-76
2022/12/03 07:18:49;;;;;;;39.80;19.85;;;1.20;99.90;;;-0.55;91.68;102247.50;4987000;28;20064;-77
2022/12/03 07:21:15;;;;;;;40.22;18.50;;;1.30;99.90;;;-0.54;91.85;102247.56;5003836;28;20482;-76
2022/12/03 07:23:41;;;;;;;39.70;19.05;;;1.30;99.90;;;-0.57;91.61;102249.19;4983180;28;20029;-76
2022/12/03 07:26:07;;;;;;;39.97;18.98;;;1.30;99.90;;;-0.48;91.37;102250.25;5000807;28;20096;-76
2022/12/03 07:28:33;;;;;;;39.58;18.48;;;1.30;99.90;;;-0.50;91.35;102248.47;4999098;28;20031;-76
2022/12/03 07:31:02;;;;;;;43.40;19.73;;;1.30;99.90;;;-0.46;91.15;102253.75;5003960;28;20375;-77
2022/12/03 07:33:29;;;;;;;33.95;15.00;;;1.30;99.90;;;-0.53;91.18;102254.47;5000725;28;20026;-76
2022/12/03 07:35:54;;;;;;;36.08;18.33;;;1.30;99.90;;;-0.49;90.74;102248.53;4999229;28;20411;-75
2022/12/03 07:38:20;;;;;;;36.50;18.30;;;1.40;99.90;;;-0.44;91.40;102258.97;4999730;28;20207;-76
2022/12/03 07:40:46;;;;;;;34.20;16.60;;;1.30;99.90;;;-0.45;90.32;102250.34;4985994;28;20022;-76
2022/12/03 07:43:12;;;;;;;39.35;18.98;;;1.30;99.90;;;-0.38;90.84;102258.25;5005667;28;20393;-76
2022/12/03 07:45:37;;;;;;;38.38;18.35;;;1.30;99.90;;;-0.47;90.46;102253.75;5003046;28;20117;-76
2022/12/03 07:48:03;;;;;;;35.50;17.77;;;1.30;99.90;;;-0.36;90.38;102254.84;5002712;28;20115;-76
2022/12/03 07:50:29;;;;;;;35.78;16.90;;;1.30;99.90;;;-0.36;90.21;102259.16;4981835;28;20212;-76
2022/12/03 07:52:57;;;;;;;37.90;18.73;;;1.30;99.90;;;-0.40;90.09;102268.56;4982369;28;20117;-76
2022/12/03 07:55:24;;;;;;;41.45;18.42;;;1.30;99.90;;;-0.40;90.35;102263.38;5004908;28;20031;-76
2022/12/03 07:57:50;;;;;;;42.13;18.17;;;1.40;99.90;;;-0.27;90.28;102259.38;5002391;28;20077;-76
2022/12/03 08:00:16;;;;;;;41.40;18.85;;;1.40;99.90;;;-0.31;89.58;102258.41;4996879;28;20034;-76
2022/12/03 08:02:48;;;;;;;36.60;17.80;;;1.50;99.90;;;-0.27;89.77;102265.41;5024699;23;20038;-84
2022/12/03 08:05:14;;;;;;;33.08;15.13;;;1.40;99.90;;;-0.39;89.60;102254.75;4996768;28;20026;-84
2022/12/03 08:07:39;;;;;;;35.03;16.42;;;1.50;99.90;;;-0.25;89.41;102255.97;4988307;28;20029;-82
2022/12/03 08:10:06;;;;;;;36.85;18.15;;;1.50;99.90;;;-0.20;89.70;102256.06;5003705;28;20038;-82
2022/12/03 08:12:40;;;;;;;35.35;17.92;;;1.50;99.90;;;-0.23;89.27;102250.84;5010903;28;20080;-84
2022/12/03 08:15:27;;;;;;;34.72;16.63;;;1.50;99.90;;;-0.15;89.32;102257.06;4984687;28;20027;-84
2022/12/03 08:17:59;;;;;;;37.03;17.70;;;1.60;99.90;;;-0.12;89.25;102249.34;4999760;28;20030;-84
2022/12/03 08:20:36;;;;;;;34.60;17.30;;;1.60;99.90;;;-0.12;89.40;102259.69;4984848;28;20088;-83
2022/12/03 08:23:15;;;;;;;36.33;16.73;;;;;;;-0.13;89.15;102251.88;4987683;28;20475;-85
2022/12/03 08:25:50;;;;;;;37.17;16.60;;;1.60;99.90;;;-0.14;89.02;102252.75;4997271;28;20038;-87
2022/12/03 08:28:33;;;;;;;37.75;17.20;;;1.60;99.90;;;-0.12;88.74;102245.91;5005353;28;20033;-85
2022/12/03 08:31:18;;;;;;;39.40;17.75;;;1.60;99.90;;;-0.03;89.04;102246.94;4990195;28;20104;-84
2022/12/03 08:37:17;;;;;;;30.88;13.77;;;1.60;99.90;;;-0.27;88.24;102249.88;4922420;29;20040;-79
2022/12/03 08:39:57;;;;;;;36.00;17.17;;;;;;;-0.23;88.27;102246.53;4992872;28;20045;-83
2022/12/03 08:42:40;;;;;;;34.25;16.77;;;1.60;99.90;;;-0.11;88.67;102250.22;5036605;28;20049;-83
2022/12/03 08:45:38;;;;;;;36.60;18.10;;;1.70;99.90;;;0.05;89.02;102248.84;4990432;28;20054;-82
2022/12/03 08:48:32;;;;;;;36.50;17.42;;;1.70;99.90;;;-0.02;88.93;102240.94;5024941;28;20572;-83
2022/12/03 08:51:25;;;;;;;35.28;16.95;;;1.70;99.90;;;0.10;88.29;102242.91;5024533;28;20034;-82
2022/12/03 08:53:58;;;;;;;36.50;17.17;;;1.80;99.90;;;0.11;88.36;102247.25;5005363;28;20156;-84
2022/12/03 08:56:29;;;;;;;37.35;16.58;;;1.80;99.90;;;0.19;88.50;102252.56;5002214;28;20030;-83
2022/12/03 08:59:29;;;;;;;34.72;16.10;;;1.80;99.90;;;0.29;87.86;102251.06;5011397;28;20409;-84
2022/12/03 09:01:58;;;;;;;17.88;7.63;;;1.90;99.90;;;0.08;87.61;102243.72;5004143;28;20080;-82
2022/12/03 09:04:36;;;;;;;33.03;16.80;;;1.90;99.90;;;0.23;87.83;102249.22;4982133;28;20046;-81
2022/12/03 09:07:02;;;;;;;35.45;16.88;;;1.90;99.90;;;0.25;87.71;102257.03;5018740;28;20037;-82
2022/12/03 09:09:33;;;;;;;37.78;17.27;;;1.90;99.90;;;0.31;87.58;102250.25;5005561;28;20518;-82
2022/12/03 09:12:01;;;;;;;34.13;16.13;;;2.00;99.90;;;0.37;87.74;102255.56;5003027;28;20038;-82
2022/12/03 09:14:27;;;;;;;36.30;16.98;;;2.00;99.90;;;0.31;87.40;102244.19;4987692;28;20025;-83
2022/12/03 09:16:55;;;;;;;36.80;16.27;;;2.00;99.90;;;0.35;87.27;102248.59;5005816;28;20111;-82
2022/12/03 09:19:26;;;;;;;35.97;16.52;;;2.00;99.90;;;0.37;87.40;102245.19;5022929;28;20041;-83
2022/12/03 09:21:55;;;;;;;35.40;15.55;;;2.00;99.90;;;0.33;87.41;102237.34;4999543;28;20104;-83
2022/12/03 09:24:21;;;;;;;35.15;17.00;;;2.10;99.90;;;0.36;87.33;102243.44;5004566;28;20048;-82
2022/12/03 09:26:47;;;;;;;37.40;17.58;;;2.00;99.90;;;0.33;87.16;102245.09;5007478;28;20049;-81
2022/12/03 09:29:20;;;;;;;32.67;17.13;;;1.90;99.90;;;0.16;87.45;102234.41;5007677;28;20042;-81
2022/12/03 09:31:46;;;;;;;36.28;17.45;;;2.00;99.90;;;0.36;87.46;102237.38;5000751;28;20095;-83
2022/12/03 09:34:15;;;;;;;35.55;15.88;;;2.00;99.90;;;0.42;87.38;102242.69;5021076;28;20033;-82
2022/12/03 09:36:49;;;;;;;37.10;17.58;;;2.10;99.90;;;0.51;87.00;102242.00;5021089;28;20036;-82
2022/12/03 09:39:17;;;;;;;33.95;16.63;;;2.10;99.90;;;0.55;86.97;102244.66;5003844;28;20402;-82
2022/12/03 09:41:48;;;;;;;34.70;15.48;;;2.20;99.90;;;0.51;86.59;102245.44;5006458;28;20034;-82
2022/12/03 09:44:14;;;;;;;41.63;19.17;;;2.20;99.90;;;0.54;86.35;102248.13;5002488;28;20046;-83
2022/12/03 09:46:42;;;;;;;32.50;16.95;;;2.10;99.90;;;0.38;85.84;102246.06;5003920;28;20038;-82
2022/12/03 09:49:16;;;;;;;33.75;17.40;;;2.10;99.90;;;0.35;86.14;102239.09;5005373;28;20072;-83
2022/12/03 09:51:46;;;;;;;22.55;9.85;;;2.20;99.90;;;0.35;85.69;102230.47;5004914;28;20057;-83
2022/12/03 09:54:24;;;;;;;23.80;10.63;;;2.00;99.90;;;0.15;84.42;102223.16;5007136;28;20092;-83
2022/12/03 09:56:52;;;;;;;40.38;18.23;;;2.00;99.90;;;0.35;84.35;102226.16;5008666;28;20037;-83
2022/12/03 09:59:19;;;;;;;34.65;16.95;;;2.10;99.90;;;0.48;83.77;102227.25;5018002;28;20137;-84
2022/12/03 10:01:55;;;;;;;35.25;17.10;;;2.10;99.90;;;0.39;82.81;102227.09;5020156;28;20049;-83
2022/12/03 10:04:21;;;;;;;26.75;12.05;;;;;;;0.07;82.09;102227.31;4989943;28;20033;-83
2022/12/03 10:07:10;;;;;;;34.83;18.10;;;2.10;99.90;;;0.26;82.43;102225.97;5024489;28;20038;-83
2022/12/03 10:09:39;;;;;;;36.83;19.40;;;2.10;99.90;;;0.37;82.46;102239.16;5012153;28;20045;-83
2022/12/03 10:12:14;;;;;;;49.25;23.10;;;2.10;99.90;;;0.46;83.07;102234.13;5018972;28;20716;-84
2022/12/03 10:14:41;;;;;;;37.08;17.55;;;2.20;99.90;;;0.35;83.34;102226.16;4994337;28;20033;-83
2022/12/03 10:17:10;;;;;;;42.67;21.27;;;2.10;99.90;;;0.37;83.60;102223.59;4990664;28;20574;-83
2022/12/03 10:19:44;;;;;;;43.53;22.58;;;2.10;99.90;;;0.34;84.07;102218.34;4999354;28;20038;-83
2022/12/03 10:22:24;;;;;;;45.15;22.33;;;2.10;99.90;;;0.33;83.74;102216.59;5021947;28;20044;-83
2022/12/03 10:25:20;;;;;;;48.40;21.13;;;2.10;99.90;;;0.39;83.87;102207.22;5025112;28;20574;-83
2022/12/03 10:28:04;;;;;;;38.85;16.92;;;2.00;99.90;;;0.08;84.04;102203.16;5006451;28;20037;-83
2022/12/03 10:30:30;;;;;;;47.80;22.15;;;2.00;99.90;;;0.22;84.33;102205.13;5009526;28;20044;-82
2022/12/03 10:33:20;;;;;;;49.80;23.80;;;1.90;99.90;;;0.09;84.54;102210.09;5010523;28;20045;-84
2022/12/03 10:35:46;;;;;;;51.28;23.08;;;1.90;99.90;;;0.02;84.88;102204.72;5026593;28;20080;-85
2022/12/03 10:38:25;;;;;;;35.83;16.27;;;;;;;-0.11;85.23;102201.91;5012912;28;20041;-85
2022/12/03 10:41:00;;;;;;;56.08;26.40;;;1.80;99.90;;;0.04;85.22;102203.91;5022851;28;20739;-83
2022/12/03 10:43:26;;;;;;;56.28;26.15;;;1.80;99.90;;;0.04;85.06;102197.88;5014721;28;20405;-84
2022/12/03 10:46:00;;;;;;;57.58;26.52;;;1.80;99.90;;;-0.07;85.52;102201.09;5007270;28;20041;-85
2022/12/03 10:48:34;;;;;;;62.58;29.63;;;1.80;99.90;;;-0.03;85.43;102196.88;5011605;28;20037;-84